sensor_id;sensor_type;location;lat;lon;timestamp;P1;durP1;ratioP1;P2;durP2;ratioP2
28756;SDS011;44294;48.282;14.282;2023-02-15T00:01:31;44.53;;;18.23;;
28756;SDS011;44294;48.282;14.282;2023-02-15T00:04:20;42.63;;;17.80;;
28756;SDS011;44294;48.282;14.282;2023-02-15T00:07:07;38.47;;;16.80;;
28756;SDS011;44294;48.282;14.282;2023-02-15T00:09:55;39.40;;;16.53;;
28756;SDS011;44294;48.282;14.282;2023-02-15T00:12:42;38.90;;;16.20;;
28756;SDS011;44294;48.282;14.282;2023-02-15T00:15:29;34.10;;;15.57;;
28756;SDS011;44294;48.282;14.282;2023-02-15T00:18:17;32.20;;;14.63;;
28756;SDS011;44294;48.282;14.282;2023-02-15T00:21:09;34.07;;;16.40;;
28756;SDS011;44294;48.282;14.282;2023-02-15T00:23:53;31.90;;;15.07;;
28756;SDS011;44294;48.282;14.282;2023-02-15T00:26:41;33.07;;;15.70;;
28756;SDS011;44294;48.282;14.282;2023-02-15T00:29:28;35.30;;;15.07;;
28756;SDS011;44294;48.282;14.282;2023-02-15T00:32:16;33.47;;;15.03;;
28756;SDS011;44294;48.282;14.282;2023-02-15T00:35:03;35.07;;;15.20;;
28756;SDS011;44294;48.282;14.282;2023-02-15T00:37:50;32.63;;;14.33;;
28756;SDS011;44294;48.282;14.282;2023-02-15T00:40:38;33.27;;;14.63;;
28756;SDS011;44294;48.282;14.282;2023-02-15T00:43:26;34.00;;;14.90;;
28756;SDS011;44294;48.282;14.282;2023-02-15T00:46:14;31.53;;;14.13;;
28756;SDS011;44294;48.282;14.282;2023-02-15T00:49:01;32.87;;;15.00;;
28756;SDS011;44294;48.282;14.282;2023-02-15T00:51:48;35.13;;;15.00;;
28756;SDS011;44294;48.282;14.282;2023-02-15T00:54:36;34.57;;;15.23;;
28756;SDS011;44294;48.282;14.282;2023-02-15T00:57:24;30.93;;;13.90;;
28756;SDS011;44294;48.282;14.282;2023-02-15T01:00:12;28.67;;;14.07;;
28756;SDS011;44294;48.282;14.282;2023-02-15T01:03:00;29.70;;;13.77;;
28756;SDS011;44294;48.282;14.282;2023-02-15T01:05:47;29.30;;;13.70;;
28756;SDS011;44294;48.282;14.282;2023-02-15T01:08:35;32.80;;;14.30;;
28756;SDS011;44294;48.282;14.282;2023-02-15T01:11:22;30.70;;;14.27;;
28756;SDS011;44294;48.282;14.282;2023-02-15T01:14:10;30.20;;;13.10;;
28756;SDS011;44294;48.282;14.282;2023-02-15T01:16:57;30.07;;;13.67;;
28756;SDS011;44294;48.282;14.282;2023-02-15T01:19:45;28.60;;;12.97;;
28756;SDS011;44294;48.282;14.282;2023-02-15T01:22:32;33.30;;;13.57;;
28756;SDS011;44294;48.282;14.282;2023-02-15T01:25:20;31.20;;;13.20;;
28756;SDS011;44294;48.282;14.282;2023-02-15T01:28:07;28.13;;;13.20;;
28756;SDS011;44294;48.282;14.282;2023-02-15T01:30:55;28.47;;;12.93;;
28756;SDS011;44294;48.282;14.282;2023-02-15T01:33:42;29.67;;;13.03;;
28756;SDS011;44294;48.282;14.282;2023-02-15T01:36:29;29.13;;;13.17;;
28756;SDS011;44294;48.282;14.282;2023-02-15T01:39:18;29.10;;;12.20;;
28756;SDS011;44294;48.282;14.282;2023-02-15T01:42:05;26.70;;;12.70;;
28756;SDS011;44294;48.282;14.282;2023-02-15T01:44:54;28.93;;;13.47;;
28756;SDS011;44294;48.282;14.282;2023-02-15T01:47:50;29.00;;;13.30;;
28756;SDS011;44294;48.282;14.282;2023-02-15T01:50:40;28.80;;;13.30;;
28756;SDS011;44294;48.282;14.282;2023-02-15T01:53:28;31.60;;;13.63;;
28756;SDS011;44294;48.282;14.282;2023-02-15T01:56:19;28.23;;;12.77;;
28756;SDS011;44294;48.282;14.282;2023-02-15T01:59:09;28.73;;;13.07;;
28756;SDS011;44294;48.282;14.282;2023-02-15T02:01:57;28.93;;;13.30;;
28756;SDS011;44294;48.282;14.282;2023-02-15T02:04:48;33.40;;;14.00;;
28756;SDS011;44294;48.282;14.282;2023-02-15T02:07:39;27.93;;;13.00;;
28756;SDS011;44294;48.282;14.282;2023-02-15T02:10:27;27.40;;;13.87;;
28756;SDS011;44294;48.282;14.282;2023-02-15T02:13:15;28.03;;;12.97;;
28756;SDS011;44294;48.282;14.282;2023-02-15T02:16:06;27.20;;;12.83;;
28756;SDS011;44294;48.282;14.282;2023-02-15T02:18:58;25.63;;;12.77;;
28756;SDS011;44294;48.282;14.282;2023-02-15T02:27:39;27.57;;;12.70;;
28756;SDS011;44294;48.282;14.282;2023-02-15T02:30:30;27.97;;;12.90;;
28756;SDS011;44294;48.282;14.282;2023-02-15T02:36:30;26.70;;;13.03;;
28756;SDS011;44294;48.282;14.282;2023-02-15T02:39:22;26.10;;;12.63;;
28756;SDS011;44294;48.282;14.282;2023-02-15T02:45:03;30.90;;;13.43;;
28756;SDS011;44294;48.282;14.282;2023-02-15T02:50:41;26.83;;;12.97;;
28756;SDS011;44294;48.282;14.282;2023-02-15T02:53:29;29.23;;;13.23;;
28756;SDS011;44294;48.282;14.282;2023-02-15T02:56:28;31.67;;;13.73;;
28756;SDS011;44294;48.282;14.282;2023-02-15T02:59:16;29.43;;;13.30;;
28756;SDS011;44294;48.282;14.282;2023-02-15T03:02:47;31.40;;;14.10;;
28756;SDS011;44294;48.282;14.282;2023-02-15T03:04:59;33.90;;;14.33;;
28756;SDS011;44294;48.282;14.282;2023-02-15T03:07:49;32.27;;;13.80;;
28756;SDS011;44294;48.282;14.282;2023-02-15T03:10:38;33.90;;;14.13;;
28756;SDS011;44294;48.282;14.282;2023-02-15T03:13:26;31.23;;;13.03;;
28756;SDS011;44294;48.282;14.282;2023-02-15T03:16:13;33.13;;;13.90;;
28756;SDS011;44294;48.282;14.282;2023-02-15T03:19:18;32.80;;;13.60;;
28756;SDS011;44294;48.282;14.282;2023-02-15T03:22:07;35.20;;;13.93;;
28756;SDS011;44294;48.282;14.282;2023-02-15T03:24:59;29.40;;;12.73;;
28756;SDS011;44294;48.282;14.282;2023-02-15T03:27:50;34.17;;;13.70;;
28756;SDS011;44294;48.282;14.282;2023-02-15T03:30:38;30.97;;;13.17;;
28756;SDS011;44294;48.282;14.282;2023-02-15T03:33:27;32.67;;;14.30;;
28756;SDS011;44294;48.282;14.282;2023-02-15T03:36:24;32.47;;;13.83;;
28756;SDS011;44294;48.282;14.282;2023-02-15T03:39:16;34.20;;;13.90;;
28756;SDS011;44294;48.282;14.282;2023-02-15T03:42:14;33.80;;;14.43;;
28756;SDS011;44294;48.282;14.282;2023-02-15T03:45:04;32.57;;;13.70;;
28756;SDS011;44294;48.282;14.282;2023-02-15T03:47:51;36.93;;;14.03;;
28756;SDS011;44294;48.282;14.282;2023-02-15T03:50:39;32.10;;;13.67;;
28756;SDS011;44294;48.282;14.282;2023-02-15T03:53:45;30.80;;;13.07;;
28756;SDS011;44294;48.282;14.282;2023-02-15T03:56:35;32.63;;;13.80;;
28756;SDS011;44294;48.282;14.282;2023-02-15T03:59:23;32.80;;;13.60;;
28756;SDS011;44294;48.282;14.282;2023-02-15T04:02:21;31.37;;;13.30;;
28756;SDS011;44294;48.282;14.282;2023-02-15T04:05:10;31.47;;;13.23;;
28756;SDS011;44294;48.282;14.282;2023-02-15T04:07:57;29.80;;;12.53;;
28756;SDS011;44294;48.282;14.282;2023-02-15T04:10:44;31.33;;;13.40;;
28756;SDS011;44294;48.282;14.282;2023-02-15T04:13:43;31.63;;;13.37;;
28756;SDS011;44294;48.282;14.282;2023-02-15T04:16:31;34.37;;;13.93;;
28756;SDS011;44294;48.282;14.282;2023-02-15T04:19:18;30.97;;;13.50;;
28756;SDS011;44294;48.282;14.282;2023-02-15T04:22:24;34.63;;;13.47;;
28756;SDS011;44294;48.282;14.282;2023-02-15T04:25:29;34.77;;;14.83;;
28756;SDS011;44294;48.282;14.282;2023-02-15T04:28:16;33.63;;;13.43;;
28756;SDS011;44294;48.282;14.282;2023-02-15T04:31:04;34.73;;;14.57;;
28756;SDS011;44294;48.282;14.282;2023-02-15T04:33:51;29.97;;;13.00;;
28756;SDS011;44294;48.282;14.282;2023-02-15T04:36:38;32.83;;;13.77;;
28756;SDS011;44294;48.282;14.282;2023-02-15T04:39:26;34.07;;;14.10;;
28756;SDS011;44294;48.282;14.282;2023-02-15T04:42:13;35.87;;;14.73;;
28756;SDS011;44294;48.282;14.282;2023-02-15T04:45:01;31.37;;;13.67;;
28756;SDS011;44294;48.282;14.282;2023-02-15T04:47:48;34.77;;;13.70;;
28756;SDS011;44294;48.282;14.282;2023-02-15T04:50:36;31.37;;;13.80;;
28756;SDS011;44294;48.282;14.282;2023-02-15T04:53:23;29.73;;;13.63;;
28756;SDS011;44294;48.282;14.282;2023-02-15T04:56:10;33.60;;;13.50;;
28756;SDS011;44294;48.282;14.282;2023-02-15T04:58:58;33.47;;;14.23;;
28756;SDS011;44294;48.282;14.282;2023-02-15T05:01:45;33.70;;;14.50;;
28756;SDS011;44294;48.282;14.282;2023-02-15T05:04:32;36.73;;;15.17;;
28756;SDS011;44294;48.282;14.282;2023-02-15T05:07:20;44.27;;;17.37;;
28756;SDS011;44294;48.282;14.282;2023-02-15T05:10:07;47.70;;;17.83;;
28756;SDS011;44294;48.282;14.282;2023-02-15T05:12:55;51.17;;;18.97;;
28756;SDS011;44294;48.282;14.282;2023-02-15T05:15:46;48.17;;;18.97;;
28756;SDS011;44294;48.282;14.282;2023-02-15T05:18:31;49.00;;;19.93;;
28756;SDS011;44294;48.282;14.282;2023-02-15T05:21:18;48.40;;;19.90;;
28756;SDS011;44294;48.282;14.282;2023-02-15T05:24:05;52.63;;;19.50;;
28756;SDS011;44294;48.282;14.282;2023-02-15T05:26:55;45.20;;;18.37;;
28756;SDS011;44294;48.282;14.282;2023-02-15T05:30:00;37.97;;;15.63;;
28756;SDS011;44294;48.282;14.282;2023-02-15T05:32:47;32.07;;;13.67;;
28756;SDS011;44294;48.282;14.282;2023-02-15T05:35:35;37.10;;;15.17;;
28756;SDS011;44294;48.282;14.282;2023-02-15T05:38:22;41.47;;;16.57;;
28756;SDS011;44294;48.282;14.282;2023-02-15T05:41:10;40.87;;;17.00;;
28756;SDS011;44294;48.282;14.282;2023-02-15T05:43:57;39.00;;;16.00;;
28756;SDS011;44294;48.282;14.282;2023-02-15T05:46:44;37.67;;;15.73;;
28756;SDS011;44294;48.282;14.282;2023-02-15T05:49:32;35.83;;;15.17;;
28756;SDS011;44294;48.282;14.282;2023-02-15T05:52:19;35.67;;;15.27;;
28756;SDS011;44294;48.282;14.282;2023-02-15T05:55:06;46.10;;;17.37;;
28756;SDS011;44294;48.282;14.282;2023-02-15T05:57:55;46.77;;;18.47;;
28756;SDS011;44294;48.282;14.282;2023-02-15T06:00:42;47.33;;;19.00;;
28756;SDS011;44294;48.282;14.282;2023-02-15T06:03:29;50.67;;;19.90;;
28756;SDS011;44294;48.282;14.282;2023-02-15T06:06:17;51.80;;;20.57;;
28756;SDS011;44294;48.282;14.282;2023-02-15T06:09:04;48.77;;;19.17;;
28756;SDS011;44294;48.282;14.282;2023-02-15T06:11:51;50.90;;;20.57;;
28756;SDS011;44294;48.282;14.282;2023-02-15T06:14:39;56.60;;;21.40;;
28756;SDS011;44294;48.282;14.282;2023-02-15T06:17:26;57.17;;;22.27;;
28756;SDS011;44294;48.282;14.282;2023-02-15T06:20:13;66.80;;;24.10;;
28756;SDS011;44294;48.282;14.282;2023-02-15T06:23:01;59.57;;;23.43;;
28756;SDS011;44294;48.282;14.282;2023-02-15T06:25:48;53.83;;;21.50;;
28756;SDS011;44294;48.282;14.282;2023-02-15T06:28:35;57.23;;;22.23;;
28756;SDS011;44294;48.282;14.282;2023-02-15T06:31:23;60.27;;;25.40;;
28756;SDS011;44294;48.282;14.282;2023-02-15T06:34:10;47.07;;;19.80;;
28756;SDS011;44294;48.282;14.282;2023-02-15T06:36:58;48.17;;;18.00;;
28756;SDS011;44294;48.282;14.282;2023-02-15T06:39:45;37.23;;;15.77;;
28756;SDS011;44294;48.282;14.282;2023-02-15T06:42:32;37.73;;;15.67;;
28756;SDS011;44294;48.282;14.282;2023-02-15T06:45:20;36.77;;;16.00;;
28756;SDS011;44294;48.282;14.282;2023-02-15T06:48:07;52.17;;;19.47;;
28756;SDS011;44294;48.282;14.282;2023-02-15T06:50:55;54.10;;;21.47;;
28756;SDS011;44294;48.282;14.282;2023-02-15T06:53:42;48.67;;;20.60;;
28756;SDS011;44294;48.282;14.282;2023-02-15T06:56:30;44.17;;;18.30;;
28756;SDS011;44294;48.282;14.282;2023-02-15T06:59:17;38.73;;;16.40;;
28756;SDS011;44294;48.282;14.282;2023-02-15T07:02:04;39.37;;;15.83;;
28756;SDS011;44294;48.282;14.282;2023-02-15T07:04:52;38.83;;;15.33;;
28756;SDS011;44294;48.282;14.282;2023-02-15T07:07:39;36.73;;;15.40;;
28756;SDS011;44294;48.282;14.282;2023-02-15T07:10:27;44.87;;;18.23;;
28756;SDS011;44294;48.282;14.282;2023-02-15T07:13:14;43.67;;;17.23;;
28756;SDS011;44294;48.282;14.282;2023-02-15T07:16:02;39.20;;;16.63;;
28756;SDS011;44294;48.282;14.282;2023-02-15T07:18:49;38.23;;;15.53;;
28756;SDS011;44294;48.282;14.282;2023-02-15T07:21:36;34.33;;;15.07;;
28756;SDS011;44294;48.282;14.282;2023-02-15T07:24:24;36.37;;;14.53;;
28756;SDS011;44294;48.282;14.282;2023-02-15T07:27:11;36.57;;;14.80;;
28756;SDS011;44294;48.282;14.282;2023-02-15T07:29:59;35.60;;;15.57;;
28756;SDS011;44294;48.282;14.282;2023-02-15T07:32:46;38.93;;;15.50;;
28756;SDS011;44294;48.282;14.282;2023-02-15T07:35:57;34.30;;;14.33;;
28756;SDS011;44294;48.282;14.282;2023-02-15T07:38:41;37.13;;;14.83;;
28756;SDS011;44294;48.282;14.282;2023-02-15T07:41:29;35.77;;;14.50;;
28756;SDS011;44294;48.282;14.282;2023-02-15T07:44:16;33.27;;;14.20;;
28756;SDS011;44294;48.282;14.282;2023-02-15T07:47:04;35.87;;;14.40;;
28756;SDS011;44294;48.282;14.282;2023-02-15T07:49:51;36.97;;;14.80;;
28756;SDS011;44294;48.282;14.282;2023-02-15T07:52:38;38.13;;;14.53;;
28756;SDS011;44294;48.282;14.282;2023-02-15T07:55:26;30.80;;;13.47;;
28756;SDS011;44294;48.282;14.282;2023-02-15T07:58:13;36.47;;;14.50;;
28756;SDS011;44294;48.282;14.282;2023-02-15T08:01:00;35.77;;;13.43;;
28756;SDS011;44294;48.282;14.282;2023-02-15T08:03:49;34.03;;;14.03;;
28756;SDS011;44294;48.282;14.282;2023-02-15T08:06:37;32.83;;;13.27;;
28756;SDS011;44294;48.282;14.282;2023-02-15T08:09:25;31.13;;;13.77;;
28756;SDS011;44294;48.282;14.282;2023-02-15T08:12:12;30.80;;;13.80;;
28756;SDS011;44294;48.282;14.282;2023-02-15T08:14:59;33.83;;;13.33;;
28756;SDS011;44294;48.282;14.282;2023-02-15T08:17:46;31.20;;;13.27;;
28756;SDS011;44294;48.282;14.282;2023-02-15T08:20:34;33.07;;;13.90;;
28756;SDS011;44294;48.282;14.282;2023-02-15T08:23:21;31.10;;;13.63;;
28756;SDS011;44294;48.282;14.282;2023-02-15T08:26:09;31.47;;;13.10;;
28756;SDS011;44294;48.282;14.282;2023-02-15T08:28:57;32.40;;;13.27;;
28756;SDS011;44294;48.282;14.282;2023-02-15T08:31:44;33.77;;;14.27;;
28756;SDS011;44294;48.282;14.282;2023-02-15T08:34:33;40.30;;;15.23;;
28756;SDS011;44294;48.282;14.282;2023-02-15T08:37:21;37.20;;;15.27;;
28756;SDS011;44294;48.282;14.282;2023-02-15T08:40:09;39.30;;;16.23;;
28756;SDS011;44294;48.282;14.282;2023-02-15T08:42:56;52.90;;;22.40;;
28756;SDS011;44294;48.282;14.282;2023-02-15T08:45:43;39.30;;;16.17;;
28756;SDS011;44294;48.282;14.282;2023-02-15T08:48:31;43.13;;;16.50;;
28756;SDS011;44294;48.282;14.282;2023-02-15T08:51:19;49.70;;;17.87;;
28756;SDS011;44294;48.282;14.282;2023-02-15T08:54:08;39.47;;;16.10;;
28756;SDS011;44294;48.282;14.282;2023-02-15T08:56:56;41.43;;;16.60;;
28756;SDS011;44294;48.282;14.282;2023-02-15T08:59:44;47.03;;;18.03;;
28756;SDS011;44294;48.282;14.282;2023-02-15T09:02:31;45.07;;;17.30;;
28756;SDS011;44294;48.282;14.282;2023-02-15T09:05:18;46.70;;;18.10;;
28756;SDS011;44294;48.282;14.282;2023-02-15T09:08:06;54.60;;;20.77;;
28756;SDS011;44294;48.282;14.282;2023-02-15T09:10:53;66.53;;;25.73;;
28756;SDS011;44294;48.282;14.282;2023-02-15T09:13:40;60.00;;;22.73;;
28756;SDS011;44294;48.282;14.282;2023-02-15T09:16:29;56.50;;;22.70;;
28756;SDS011;44294;48.282;14.282;2023-02-15T09:19:17;53.47;;;20.57;;
28756;SDS011;44294;48.282;14.282;2023-02-15T09:22:05;52.70;;;21.97;;
28756;SDS011;44294;48.282;14.282;2023-02-15T09:24:52;56.77;;;21.70;;
28756;SDS011;44294;48.282;14.282;2023-02-15T09:27:40;52.93;;;21.63;;
28756;SDS011;44294;48.282;14.282;2023-02-15T09:30:27;55.27;;;22.10;;
28756;SDS011;44294;48.282;14.282;2023-02-15T09:33:14;56.43;;;23.23;;
28756;SDS011;44294;48.282;14.282;2023-02-15T09:36:03;55.63;;;22.13;;
28756;SDS011;44294;48.282;14.282;2023-02-15T09:38:57;57.93;;;23.03;;
28756;SDS011;44294;48.282;14.282;2023-02-15T09:47:46;68.73;;;25.33;;
28756;SDS011;44294;48.282;14.282;2023-02-15T09:50:46;59.67;;;23.60;;
28756;SDS011;44294;48.282;14.282;2023-02-15T09:59:52;69.57;;;26.63;;
28756;SDS011;44294;48.282;14.282;2023-02-15T10:02:41;64.67;;;24.97;;
28756;SDS011;44294;48.282;14.282;2023-02-15T10:05:42;61.07;;;25.20;;
28756;SDS011;44294;48.282;14.282;2023-02-15T10:20:33;71.80;;;28.80;;
28756;SDS011;44294;48.282;14.282;2023-02-15T10:23:30;76.63;;;27.80;;
28756;SDS011;44294;48.282;14.282;2023-02-15T10:26:21;70.33;;;27.50;;
28756;SDS011;44294;48.282;14.282;2023-02-15T10:29:15;70.67;;;28.07;;
28756;SDS011;44294;48.282;14.282;2023-02-15T10:32:21;71.43;;;27.40;;
28756;SDS011;44294;48.282;14.282;2023-02-15T10:35:11;81.87;;;30.60;;
28756;SDS011;44294;48.282;14.282;2023-02-15T10:38:02;86.00;;;31.70;;
28756;SDS011;44294;48.282;14.282;2023-02-15T10:40:54;97.87;;;34.50;;
28756;SDS011;44294;48.282;14.282;2023-02-15T10:58:27;104.53;;;37.53;;
28756;SDS011;44294;48.282;14.282;2023-02-15T11:01:23;104.87;;;38.33;;
28756;SDS011;44294;48.282;14.282;2023-02-15T11:07:04;104.93;;;36.80;;
28756;SDS011;44294;48.282;14.282;2023-02-15T11:09:53;103.60;;;37.80;;
28756;SDS011;44294;48.282;14.282;2023-02-15T11:12:41;101.07;;;37.47;;
28756;SDS011;44294;48.282;14.282;2023-02-15T11:15:34;104.27;;;38.37;;
28756;SDS011;44294;48.282;14.282;2023-02-15T11:18:27;108.77;;;39.93;;
28756;SDS011;44294;48.282;14.282;2023-02-15T11:21:21;112.57;;;39.97;;
28756;SDS011;44294;48.282;14.282;2023-02-15T11:24:14;116.40;;;40.67;;
28756;SDS011;44294;48.282;14.282;2023-02-15T11:27:05;125.17;;;45.77;;
28756;SDS011;44294;48.282;14.282;2023-02-15T11:29:54;115.07;;;41.30;;
28756;SDS011;44294;48.282;14.282;2023-02-15T11:32:43;113.63;;;41.40;;
28756;SDS011;44294;48.282;14.282;2023-02-15T11:35:31;106.07;;;38.67;;
28756;SDS011;44294;48.282;14.282;2023-02-15T11:38:22;110.30;;;40.60;;
28756;SDS011;44294;48.282;14.282;2023-02-15T11:41:14;114.33;;;41.07;;
28756;SDS011;44294;48.282;14.282;2023-02-15T11:44:05;121.70;;;41.63;;
28756;SDS011;44294;48.282;14.282;2023-02-15T11:46:50;121.37;;;42.87;;
28756;SDS011;44294;48.282;14.282;2023-02-15T11:49:37;112.27;;;41.50;;
28756;SDS011;44294;48.282;14.282;2023-02-15T11:52:25;106.30;;;39.63;;
28756;SDS011;44294;48.282;14.282;2023-02-15T11:55:14;106.50;;;39.43;;
28756;SDS011;44294;48.282;14.282;2023-02-15T12:00:56;108.97;;;39.53;;
28756;SDS011;44294;48.282;14.282;2023-02-15T12:03:46;106.20;;;38.07;;
28756;SDS011;44294;48.282;14.282;2023-02-15T12:06:41;101.73;;;37.83;;
28756;SDS011;44294;48.282;14.282;2023-02-15T12:09:33;122.87;;;41.60;;
28756;SDS011;44294;48.282;14.282;2023-02-15T12:12:27;107.23;;;38.93;;
28756;SDS011;44294;48.282;14.282;2023-02-15T12:15:15;100.50;;;35.67;;
28756;SDS011;44294;48.282;14.282;2023-02-15T12:18:04;88.17;;;32.50;;
28756;SDS011;44294;48.282;14.282;2023-02-15T12:20:52;90.10;;;34.83;;
28756;SDS011;44294;48.282;14.282;2023-02-15T12:23:52;83.83;;;32.20;;
28756;SDS011;44294;48.282;14.282;2023-02-15T12:26:41;83.63;;;32.27;;
28756;SDS011;44294;48.282;14.282;2023-02-15T12:32:27;82.50;;;32.00;;
28756;SDS011;44294;48.282;14.282;2023-02-15T12:35:21;93.87;;;34.50;;
28756;SDS011;44294;48.282;14.282;2023-02-15T12:38:21;110.40;;;38.20;;
28756;SDS011;44294;48.282;14.282;2023-02-15T12:41:04;100.77;;;34.93;;
28756;SDS011;44294;48.282;14.282;2023-02-15T12:43:47;87.00;;;33.00;;
28756;SDS011;44294;48.282;14.282;2023-02-15T12:46:36;90.27;;;33.47;;
28756;SDS011;44294;48.282;14.282;2023-02-15T12:49:24;88.97;;;32.60;;
28756;SDS011;44294;48.282;14.282;2023-02-15T12:55:11;107.03;;;37.00;;
28756;SDS011;44294;48.282;14.282;2023-02-15T13:01:18;104.20;;;36.70;;
28756;SDS011;44294;48.282;14.282;2023-02-15T13:03:54;110.00;;;37.40;;
28756;SDS011;44294;48.282;14.282;2023-02-15T13:06:45;98.83;;;35.57;;
28756;SDS011;44294;48.282;14.282;2023-02-15T13:12:24;93.10;;;34.10;;
28756;SDS011;44294;48.282;14.282;2023-02-15T13:15:30;93.23;;;34.57;;
28756;SDS011;44294;48.282;14.282;2023-02-15T13:18:23;109.87;;;41.90;;
28756;SDS011;44294;48.282;14.282;2023-02-15T13:21:10;106.07;;;37.47;;
28756;SDS011;44294;48.282;14.282;2023-02-15T13:23:56;102.13;;;36.47;;
28756;SDS011;44294;48.282;14.282;2023-02-15T13:26:44;92.20;;;33.97;;
28756;SDS011;44294;48.282;14.282;2023-02-15T13:29:34;98.97;;;35.87;;
28756;SDS011;44294;48.282;14.282;2023-02-15T13:32:26;93.80;;;34.57;;
28756;SDS011;44294;48.282;14.282;2023-02-15T13:35:15;89.60;;;33.27;;
28756;SDS011;44294;48.282;14.282;2023-02-15T13:38:06;87.73;;;32.40;;
28756;SDS011;44294;48.282;14.282;2023-02-15T13:41:04;95.10;;;34.23;;
28756;SDS011;44294;48.282;14.282;2023-02-15T13:43:58;98.90;;;35.30;;
28756;SDS011;44294;48.282;14.282;2023-02-15T13:49:43;113.07;;;42.07;;
28756;SDS011;44294;48.282;14.282;2023-02-15T13:52:25;93.97;;;35.00;;
28756;SDS011;44294;48.282;14.282;2023-02-15T13:55:20;83.27;;;31.80;;
28756;SDS011;44294;48.282;14.282;2023-02-15T13:58:42;85.13;;;32.63;;
28756;SDS011;44294;48.282;14.282;2023-02-15T14:01:15;82.83;;;31.53;;
28756;SDS011;44294;48.282;14.282;2023-02-15T14:04:09;86.60;;;32.93;;
28756;SDS011;44294;48.282;14.282;2023-02-15T14:06:58;95.40;;;34.63;;
28756;SDS011;44294;48.282;14.282;2023-02-15T14:09:46;93.33;;;34.07;;
28756;SDS011;44294;48.282;14.282;2023-02-15T14:15:33;89.90;;;33.87;;
28756;SDS011;44294;48.282;14.282;2023-02-15T14:21:17;87.80;;;34.03;;
28756;SDS011;44294;48.282;14.282;2023-02-15T14:30:26;85.17;;;32.73;;
28756;SDS011;44294;48.282;14.282;2023-02-15T14:32:53;78.10;;;31.03;;
28756;SDS011;44294;48.282;14.282;2023-02-15T14:35:41;80.97;;;30.07;;
28756;SDS011;44294;48.282;14.282;2023-02-15T14:38:51;73.93;;;30.27;;
28756;SDS011;44294;48.282;14.282;2023-02-15T14:41:43;77.77;;;30.23;;
28756;SDS011;44294;48.282;14.282;2023-02-15T14:44:33;72.93;;;30.13;;
28756;SDS011;44294;48.282;14.282;2023-02-15T14:47:44;84.27;;;31.90;;
28756;SDS011;44294;48.282;14.282;2023-02-15T15:05:12;92.80;;;35.00;;
28756;SDS011;44294;48.282;14.282;2023-02-15T15:07:59;71.87;;;29.67;;
28756;SDS011;44294;48.282;14.282;2023-02-15T15:10:46;138.00;;;48.43;;
28756;SDS011;44294;48.282;14.282;2023-02-15T15:13:35;92.67;;;36.27;;
28756;SDS011;44294;48.282;14.282;2023-02-15T15:16:34;150.30;;;61.47;;
28756;SDS011;44294;48.282;14.282;2023-02-15T15:22:25;65.00;;;27.80;;
28756;SDS011;44294;48.282;14.282;2023-02-15T15:31:43;72.03;;;30.57;;
28756;SDS011;44294;48.282;14.282;2023-02-15T15:37:44;67.67;;;27.90;;
28756;SDS011;44294;48.282;14.282;2023-02-15T15:40:37;68.67;;;28.73;;
28756;SDS011;44294;48.282;14.282;2023-02-15T15:43:29;71.97;;;28.70;;
28756;SDS011;44294;48.282;14.282;2023-02-15T15:49:08;72.43;;;29.53;;
28756;SDS011;44294;48.282;14.282;2023-02-15T15:51:55;77.03;;;31.17;;
28756;SDS011;44294;48.282;14.282;2023-02-15T15:54:43;80.40;;;32.07;;
28756;SDS011;44294;48.282;14.282;2023-02-15T15:57:35;81.20;;;32.30;;
28756;SDS011;44294;48.282;14.282;2023-02-15T16:00:29;76.13;;;31.17;;
28756;SDS011;44294;48.282;14.282;2023-02-15T16:03:15;75.20;;;30.73;;
28756;SDS011;44294;48.282;14.282;2023-02-15T16:06:03;76.57;;;30.80;;
28756;SDS011;44294;48.282;14.282;2023-02-15T16:08:50;77.13;;;30.60;;
28756;SDS011;44294;48.282;14.282;2023-02-15T16:11:38;81.07;;;31.23;;
28756;SDS011;44294;48.282;14.282;2023-02-15T16:14:26;80.33;;;31.67;;
28756;SDS011;44294;48.282;14.282;2023-02-15T16:17:17;83.50;;;33.00;;
28756;SDS011;44294;48.282;14.282;2023-02-15T16:20:13;76.47;;;31.00;;
28756;SDS011;44294;48.282;14.282;2023-02-15T16:25:55;80.37;;;31.17;;
28756;SDS011;44294;48.282;14.282;2023-02-15T16:28:48;77.10;;;30.57;;
28756;SDS011;44294;48.282;14.282;2023-02-15T16:31:36;87.13;;;32.70;;
28756;SDS011;44294;48.282;14.282;2023-02-15T16:34:23;73.43;;;29.83;;
28756;SDS011;44294;48.282;14.282;2023-02-15T16:37:16;85.80;;;33.57;;
28756;SDS011;44294;48.282;14.282;2023-02-15T16:40:04;82.30;;;31.53;;
28756;SDS011;44294;48.282;14.282;2023-02-15T16:42:52;94.43;;;34.17;;
28756;SDS011;44294;48.282;14.282;2023-02-15T16:45:40;75.67;;;29.97;;
28756;SDS011;44294;48.282;14.282;2023-02-15T16:48:28;76.63;;;29.47;;
28756;SDS011;44294;48.282;14.282;2023-02-15T16:51:18;74.10;;;28.63;;
28756;SDS011;44294;48.282;14.282;2023-02-15T16:54:07;74.17;;;29.50;;
28756;SDS011;44294;48.282;14.282;2023-02-15T16:56:56;94.40;;;34.53;;
28756;SDS011;44294;48.282;14.282;2023-02-15T16:59:47;133.57;;;44.20;;
28756;SDS011;44294;48.282;14.282;2023-02-15T17:02:36;124.57;;;42.00;;
28756;SDS011;44294;48.282;14.282;2023-02-15T17:05:24;121.63;;;40.33;;
28756;SDS011;44294;48.282;14.282;2023-02-15T17:08:14;108.33;;;38.30;;
28756;SDS011;44294;48.282;14.282;2023-02-15T17:11:04;100.80;;;36.33;;
28756;SDS011;44294;48.282;14.282;2023-02-15T17:17:05;111.57;;;38.40;;
28756;SDS011;44294;48.282;14.282;2023-02-15T17:19:52;101.17;;;36.13;;
28756;SDS011;44294;48.282;14.282;2023-02-15T17:22:40;101.30;;;36.33;;
28756;SDS011;44294;48.282;14.282;2023-02-15T17:25:37;99.83;;;35.17;;
28756;SDS011;44294;48.282;14.282;2023-02-15T17:28:27;105.90;;;36.63;;
28756;SDS011;44294;48.282;14.282;2023-02-15T17:31:14;103.20;;;35.40;;
28756;SDS011;44294;48.282;14.282;2023-02-15T17:34:03;98.80;;;35.03;;
28756;SDS011;44294;48.282;14.282;2023-02-15T17:36:57;94.63;;;34.83;;
28756;SDS011;44294;48.282;14.282;2023-02-15T17:39:46;100.00;;;34.83;;
28756;SDS011;44294;48.282;14.282;2023-02-15T17:42:34;90.40;;;32.43;;
28756;SDS011;44294;48.282;14.282;2023-02-15T17:45:21;97.67;;;33.53;;
28756;SDS011;44294;48.282;14.282;2023-02-15T17:48:09;89.70;;;33.73;;
28756;SDS011;44294;48.282;14.282;2023-02-15T17:51:00;88.57;;;32.43;;
28756;SDS011;44294;48.282;14.282;2023-02-15T17:53:48;87.60;;;33.17;;
28756;SDS011;44294;48.282;14.282;2023-02-15T17:56:53;94.37;;;33.90;;
28756;SDS011;44294;48.282;14.282;2023-02-15T17:59:41;97.00;;;34.93;;
28756;SDS011;44294;48.282;14.282;2023-02-15T18:02:46;100.07;;;34.33;;
28756;SDS011;44294;48.282;14.282;2023-02-15T18:05:52;94.37;;;33.53;;
28756;SDS011;44294;48.282;14.282;2023-02-15T18:08:57;101.53;;;34.30;;
28756;SDS011;44294;48.282;14.282;2023-02-15T18:12:19;92.33;;;33.20;;
28756;SDS011;44294;48.282;14.282;2023-02-15T18:15:09;91.93;;;33.47;;
28756;SDS011;44294;48.282;14.282;2023-02-15T18:17:57;96.30;;;34.60;;